Time;durP1;ratioP1;P1;durP2;ratioP2;P2;SDS_P1;SDS_P2;PMS_P1;PMS_P2;Temp;Humidity;BMP_temperature;BMP_pressure;BME280_temperature;BME280_humidity;BME280_pressure;Samples;Min_cycle;Max_cycle;Signal;HPM_P1;HPM_P2
2021/06/24 00:00:38;;;;;;;3.83;1.73;;;18.30;1.00;;;;;;5035951;28;20061;-95
2021/06/24 00:03:05;;;;;;;2.55;1.50;;;18.30;1.00;;;;;;5037222;28;20029;-96
2021/06/24 00:05:31;;;;;;;5.25;1.45;;;18.20;1.00;;;;;;5037170;28;20037;-96
2021/06/24 00:07:56;;;;;;;3.88;1.50;;;18.20;1.00;;;;;;5036863;28;20034;-96
2021/06/24 00:10:22;;;;;;;2.22;1.55;;;18.10;1.00;;;;;;5036575;28;20032;-96
2021/06/24 00:12:48;;;;;;;6.03;1.52;;;18.10;1.00;;;;;;5035882;28;20091;-95
2021/06/24 00:15:14;;;;;;;2.67;1.92;;;18.10;1.00;;;;;;5035889;28;20037;-96
2021/06/24 00:17:40;;;;;;;1.98;1.40;;;18.10;1.00;;;;;;5037289;28;20025;-96
2021/06/24 00:20:06;;;;;;;3.75;1.70;;;18.10;1.00;;;;;;5036482;28;20037;-95
2021/06/24 00:22:32;;;;;;;3.72;1.50;;;18.20;1.00;;;;;;5035465;28;20021;-95
2021/06/24 00:24:58;;;;;;;2.55;1.50;;;18.20;1.00;;;;;;5036893;28;20048;-96
2021/06/24 00:27:23;;;;;;;5.40;1.63;;;18.10;1.00;;;;;;5035924;28;20448;-96
2021/06/24 00:29:49;;;;;;;7.55;1.63;;;18.00;1.00;;;;;;5036190;28;20021;-95
2021/06/24 00:32:15;;;;;;;3.70;1.90;;;18.00;1.00;;;;;;5036558;28;20041;-95
2021/06/24 00:34:40;;;;;;;6.15;1.60;;;18.10;1.00;;;;;;5036223;28;20036;-95
2021/06/24 00:37:06;;;;;;;4.78;1.70;;;18.10;1.00;;;;;;5036063;28;20041;-96
2021/06/24 00:39:31;;;;;;;3.03;1.50;;;18.10;1.00;;;;;;5037093;28;20437;-95
2021/06/24 00:41:59;;;;;;;2.58;1.65;;;18.20;1.00;;;;;;5036712;28;20021;-95
2021/06/24 00:44:24;;;;;;;5.25;2.92;;;18.30;1.00;;;;;;5036579;28;20033;-95
2021/06/24 00:46:52;;;;;;;1.52;1.42;;;18.30;1.00;;;;;;5035238;28;20039;-95
2021/06/24 00:49:18;;;;;;;5.80;2.13;;;18.30;1.00;;;;;;5036437;28;20021;-95
2021/06/24 00:51:43;;;;;;;6.45;2.22;;;18.40;1.00;;;;;;5035110;28;20029;-96
2021/06/24 00:54:09;;;;;;;5.80;2.13;;;18.40;1.00;;;;;;5034968;28;20079;-95
2021/06/24 00:56:35;;;;;;;2.30;1.85;;;18.40;1.00;;;;;;5055534;28;20493;-96
2021/06/24 00:59:02;;;;;;;8.23;2.95;;;18.40;1.00;;;;;;5036258;28;20095;-96
2021/06/24 01:01:30;;;;;;;68.72;8.07;;;18.30;1.00;;;;;;5035251;28;20076;-95
2021/06/24 01:03:55;;;;;;;8.38;2.85;;;18.20;1.00;;;;;;5034739;28;20029;-96
2021/06/24 01:06:21;;;;;;;6.47;2.60;;;18.30;1.00;;;;;;5034784;28;20037;-96
2021/06/24 01:08:47;;;;;;;4.60;2.35;;;18.20;1.00;;;;;;5035230;28;20096;-96
2021/06/24 01:11:13;;;;;;;6.63;2.70;;;18.20;1.00;;;;;;5034675;28;20402;-96
2021/06/24 01:13:39;;;;;;;6.32;2.50;;;18.20;1.00;;;;;;5035432;28;20037;-96
2021/06/24 01:16:04;;;;;;;7.80;2.83;;;18.20;1.00;;;;;;5034874;28;20035;-95
2021/06/24 01:18:30;;;;;;;4.30;2.33;;;18.40;1.00;;;;;;5035289;28;20087;-96
2021/06/24 01:20:56;;;;;;;5.20;2.50;;;18.40;1.00;;;;;;5034008;28;20031;-95
2021/06/24 01:23:21;;;;;;;3.55;2.58;;;18.40;1.00;;;;;;5033797;28;20037;-95
2021/06/24 01:25:47;;;;;;;4.22;2.70;;;18.30;1.00;;;;;;5035404;28;20048;-96
2021/06/24 01:28:13;;;;;;;7.10;2.90;;;18.30;1.00;;;;;;5034071;28;20026;-96
2021/06/24 01:30:41;;;;;;;9.27;3.00;;;18.20;1.00;;;;;;5035555;28;20391;-96
2021/06/24 01:33:09;;;;;;;4.85;2.92;;;18.50;1.00;;;;;;5034680;28;20041;-96
2021/06/24 01:35:36;;;;;;;7.88;2.50;;;18.30;1.00;;;;;;5033934;28;20034;-96
2021/06/24 01:38:07;;;;;;;8.77;2.92;;;18.30;1.00;;;;;;5035005;28;20141;-96
2021/06/24 01:40:35;;;;;;;5.72;2.80;;;18.30;1.00;;;;;;5034191;28;20032;-96
2021/06/24 01:43:02;;;;;;;6.80;2.40;;;18.40;1.00;;;;;;5035267;28;20033;-96
2021/06/24 01:45:27;;;;;;;3.88;2.33;;;18.30;1.00;;;;;;5034744;28;20040;-96
2021/06/24 01:47:53;;;;;;;6.32;2.78;;;18.40;1.00;;;;;;5034683;28;20041;-96
2021/06/24 01:50:19;;;;;;;3.75;2.60;;;18.30;1.00;;;;;;5034912;28;20032;-95
2021/06/24 01:52:46;;;;;;;4.72;2.60;;;18.30;1.00;;;;;;5034896;28;20025;-96
2021/06/24 01:55:14;;;;;;;5.45;2.70;;;18.20;1.00;;;;;;5034378;28;20076;-96
2021/06/24 01:57:40;;;;;;;5.38;2.60;;;18.20;1.00;;;;;;5034685;28;20559;-96
2021/06/24 02:00:08;;;;;;;5.70;2.58;;;18.30;1.00;;;;;;5034397;28;20031;-96
2021/06/24 02:02:33;;;;;;;5.15;2.58;;;18.20;1.00;;;;;;5035579;28;20029;-96
2021/06/24 02:04:59;;;;;;;3.92;2.35;;;18.20;1.00;;;;;;5034354;28;20037;-94
2021/06/24 02:07:25;;;;;;;4.68;2.60;;;18.20;1.00;;;;;;5033609;28;20401;-96
2021/06/24 02:09:50;;;;;;;4.30;2.47;;;18.20;1.00;;;;;;5034607;28;20075;-96
2021/06/24 02:12:16;;;;;;;5.53;2.25;;;18.20;1.00;;;;;;5035064;28;20557;-96
2021/06/24 02:14:42;;;;;;;6.13;2.60;;;18.20;1.00;;;;;;5035100;28;20021;-96
2021/06/24 02:17:07;;;;;;;4.68;2.55;;;18.30;1.00;;;;;;5034301;28;20513;-96
2021/06/24 02:19:33;;;;;;;4.40;2.83;;;18.20;1.00;;;;;;5033152;28;20037;-96
2021/06/24 02:21:59;;;;;;;8.50;2.72;;;18.20;1.00;;;;;;5034557;28;20395;-96
2021/06/24 02:24:24;;;;;;;8.65;3.63;;;18.50;1.00;;;;;;5034493;28;20033;-96
2021/06/24 02:26:50;;;;;;;8.90;2.50;;;18.20;1.00;;;;;;5035304;28;20025;-96
2021/06/24 02:29:16;;;;;;;5.85;2.50;;;18.10;1.00;;;;;;5032971;28;20025;-96
2021/06/24 02:31:41;;;;;;;8.23;2.80;;;18.10;1.00;;;;;;5033268;28;20136;-96
2021/06/24 02:34:07;;;;;;;6.63;2.97;;;18.10;1.00;;;;;;5033529;28;20520;-96
2021/06/24 02:36:33;;;;;;;6.93;3.10;;;18.10;1.00;;;;;;5034606;28;20076;-96
2021/06/24 02:38:59;;;;;;;7.35;2.92;;;18.10;1.00;;;;;;5033982;28;20033;-96
2021/06/24 02:41:24;;;;;;;6.38;3.10;;;18.10;1.00;;;;;;5034128;28;20083;-96
2021/06/24 02:43:50;;;;;;;8.70;2.90;;;18.10;1.00;;;;;;5034019;28;20037;-96
2021/06/24 02:46:16;;;;;;;44.60;4.72;;;18.10;1.00;;;;;;5033853;28;20556;-96
2021/06/24 02:48:41;;;;;;;7.90;3.47;;;18.20;1.00;;;;;;5032717;28;20045;-96
2021/06/24 02:51:07;;;;;;;3.97;2.90;;;18.60;1.00;;;;;;5034143;28;20041;-96
2021/06/24 02:53:32;;;;;;;8.73;3.50;;;18.20;1.00;;;;;;5034289;28;20033;-95
2021/06/24 02:55:58;;;;;;;5.13;3.30;;;18.10;1.00;;;;;;5033249;28;20056;-96
2021/06/24 02:58:24;;;;;;;7.40;2.90;;;18.10;1.00;;;;;;5033964;28;20037;-96
2021/06/24 03:00:49;;;;;;;43.90;6.10;;;18.10;1.00;;;;;;5033465;28;20053;-96
2021/06/24 03:03:15;;;;;;;4.55;2.95;;;18.10;1.00;;;;;;5033515;28;20021;-96
2021/06/24 03:05:40;;;;;;;6.47;3.45;;;18.00;1.00;;;;;;5034239;28;20103;-96
2021/06/24 03:08:06;;;;;;;6.57;3.28;;;18.10;1.00;;;;;;5033273;28;20048;-96
2021/06/24 03:10:32;;;;;;;4.13;3.00;;;18.00;1.00;;;;;;5033410;28;20025;-96
2021/06/24 03:12:58;;;;;;;4.40;3.10;;;17.90;1.00;;;;;;5032684;28;20033;-95
2021/06/24 03:15:24;;;;;;;5.20;2.97;;;17.90;1.00;;;;;;5033723;28;20117;-96
2021/06/24 03:17:50;;;;;;;6.00;3.00;;;18.00;1.00;;;;;;5033523;28;20112;-96
2021/06/24 03:20:16;;;;;;;7.90;3.00;;;18.00;1.00;;;;;;5033043;28;20047;-96
2021/06/24 03:22:42;;;;;;;8.45;3.10;;;17.90;1.00;;;;;;5033636;28;20033;-96
2021/06/24 03:25:12;;;;;;;4.13;3.42;;;18.00;1.00;;;;;;5033328;28;20021;-96
2021/06/24 03:27:37;;;;;;;5.28;3.50;;;18.00;1.00;;;;;;5033723;28;20034;-96
2021/06/24 03:30:06;;;;;;;6.40;3.20;;;18.00;1.00;;;;;;5033563;28;20636;-96
2021/06/24 03:32:31;;;;;;;7.85;3.17;;;18.00;1.00;;;;;;5044987;28;20132;-96
2021/06/24 03:34:57;;;;;;;6.60;3.10;;;18.00;1.00;;;;;;5029869;28;20069;-96
2021/06/24 03:37:22;;;;;;;9.40;3.13;;;17.90;1.00;;;;;;5032191;28;20045;-96
2021/06/24 03:39:48;;;;;;;7.15;3.30;;;18.00;1.00;;;;;;5032411;28;20125;-96
2021/06/24 03:42:15;;;;;;;6.65;3.30;;;18.00;1.00;;;;;;5033988;28;20029;-96
2021/06/24 03:44:40;;;;;;;5.45;3.03;;;18.10;1.00;;;;;;5032328;28;20130;-96
2021/06/24 03:47:06;;;;;;;5.90;3.30;;;18.10;1.00;;;;;;5032419;28;20569;-96
2021/06/24 03:49:32;;;;;;;7.22;3.20;;;18.10;1.00;;;;;;5033460;28;20052;-96
2021/06/24 03:51:57;;;;;;;11.88;3.60;;;18.10;1.00;;;;;;5032421;28;20482;-96
2021/06/24 03:54:23;;;;;;;6.25;4.10;;;18.20;1.00;;;;;;5033177;28;20026;-96
2021/06/24 03:56:49;;;;;;;12.27;3.65;;;18.20;1.00;;;;;;5032470;28;20033;-96
2021/06/24 03:59:14;;;;;;;6.63;3.55;;;18.60;1.00;;;;;;5031512;28;20033;-96
2021/06/24 04:01:43;;;;;;;9.50;3.28;;;18.40;1.00;;;;;;5032019;28;20046;-96
2021/06/24 04:04:10;;;;;;;5.60;2.95;;;18.40;1.00;;;;;;5033208;28;20514;-96
2021/06/24 04:06:36;;;;;;;4.15;3.00;;;18.50;1.00;;;;;;5033131;28;20025;-96
2021/06/24 04:09:03;;;;;;;5.80;3.45;;;18.50;1.00;;;;;;5032541;28;20024;-95
2021/06/24 04:11:29;;;;;;;10.18;3.33;;;18.60;1.00;;;;;;5031839;28;20025;-95
2021/06/24 04:13:54;;;;;;;5.93;2.67;;;18.50;1.00;;;;;;5032001;28;20030;-96
2021/06/24 04:16:20;;;;;;;4.65;2.70;;;18.40;1.00;;;;;;5033117;28;20036;-91
2021/06/24 04:18:45;;;;;;;5.38;2.70;;;18.50;1.00;;;;;;5031958;28;20061;-89
2021/06/24 04:21:11;;;;;;;6.72;3.03;;;18.40;1.00;;;;;;5031763;28;20021;-87
2021/06/24 04:23:37;;;;;;;33.65;3.50;;;18.50;1.00;;;;;;5031777;28;20482;-87
2021/06/24 04:26:02;;;;;;;6.30;2.72;;;18.50;1.00;;;;;;5031861;28;20029;-88
2021/06/24 04:28:28;;;;;;;4.72;3.30;;;18.60;1.00;;;;;;5030943;28;20034;-88
2021/06/24 04:30:54;;;;;;;8.95;3.30;;;18.60;1.00;;;;;;5032583;28;20115;-87
2021/06/24 04:33:19;;;;;;;10.77;3.88;;;18.70;1.00;;;;;;5035314;28;20025;-87
2021/06/24 04:35:45;;;;;;;6.68;4.30;;;18.60;1.00;;;;;;5035672;28;20381;-87
2021/06/24 04:38:11;;;;;;;7.97;4.80;;;18.60;1.00;;;;;;5034744;28;20099;-87
2021/06/24 04:40:36;;;;;;;5.75;4.57;;;18.50;1.00;;;;;;5034990;28;20034;-88
2021/06/24 04:43:02;;;;;;;7.45;4.50;;;18.60;1.00;;;;;;5034946;28;20031;-90
2021/06/24 04:45:28;;;;;;;5.38;3.90;;;18.60;1.00;;;;;;5035431;28;20116;-90
2021/06/24 04:47:53;;;;;;;4.72;3.90;;;18.60;1.00;;;;;;5055906;28;20035;-90
2021/06/24 04:50:19;;;;;;;3.40;3.10;;;18.50;1.00;;;;;;5035290;28;20039;-90
2021/06/24 04:52:45;;;;;;;4.65;2.05;;;18.60;1.00;;;;;;5035367;28;20026;-91
2021/06/24 04:55:11;;;;;;;4.03;2.22;;;18.60;1.00;;;;;;5034208;28;20029;-90
2021/06/24 04:57:37;;;;;;;2.83;1.80;;;18.60;1.00;;;;;;5035110;28;20444;-89
2021/06/24 05:00:05;;;;;;;3.92;1.63;;;18.60;1.00;;;;;;5034839;28;20128;-90
2021/06/24 05:02:30;;;;;;;3.00;1.60;;;18.60;1.00;;;;;;5034357;28;20247;-93
2021/06/24 05:04:56;;;;;;;4.10;1.08;;;18.50;1.00;;;;;;5034384;28;20574;-94
2021/06/24 05:07:22;;;;;;;2.55;1.40;;;18.30;1.00;;;;;;5034104;28;20029;-95
2021/06/24 05:09:48;;;;;;;4.78;1.77;;;18.30;1.00;;;;;;5035538;28;20494;-92
2021/06/24 05:12:13;;;;;;;144.07;9.52;;;18.30;1.00;;;;;;5034911;28;20025;-92
2021/06/24 05:14:40;;;;;;;4.47;1.70;;;18.20;1.00;;;;;;5034097;28;20034;-93
2021/06/24 05:17:11;;;;;;;5.07;1.90;;;18.30;1.00;;;;;;5035325;28;20035;-91
2021/06/24 05:19:37;;;;;;;4.70;1.63;;;18.00;1.00;;;;;;5035009;28;20102;-92
2021/06/24 05:22:03;;;;;;;4.00;2.00;;;18.00;1.00;;;;;;5035307;28;20032;-93
2021/06/24 05:24:30;;;;;;;5.35;1.90;;;18.00;1.00;;;;;;5034296;28;20029;-93
2021/06/24 05:26:56;;;;;;;235.23;11.65;;;18.10;1.00;;;;;;5015109;28;20025;-95
2021/06/24 05:29:21;;;;;;;5.18;1.60;;;18.20;1.00;;;;;;5035225;28;20413;-92
2021/06/24 05:31:47;;;;;;;30.40;2.97;;;18.30;1.00;;;;;;5034705;28;20108;-91
2021/06/24 05:34:13;;;;;;;5.75;1.90;;;18.40;1.00;;;;;;5034597;28;20056;-91
2021/06/24 05:36:38;;;;;;;4.50;1.50;;;18.40;1.00;;;;;;5034291;28;20052;-92
2021/06/24 05:39:05;;;;;;;4.15;1.30;;;18.40;1.00;;;;;;5034922;28;20095;-95
2021/06/24 05:41:30;;;;;;;2.63;1.27;;;18.40;1.00;;;;;;5036069;28;20028;-95
2021/06/24 05:43:56;;;;;;;3.40;1.40;;;18.50;1.00;;;;;;5035899;28;20502;-95
2021/06/24 05:46:22;;;;;;;1.92;1.45;;;18.60;1.00;;;;;;5033557;28;20458;-95
2021/06/24 05:48:51;;;;;;;48.33;5.13;;;18.60;1.00;;;;;;5034196;28;20029;-95
2021/06/24 05:51:17;;;;;;;41.47;2.90;;;18.60;1.00;;;;;;5034635;28;20095;-95
2021/06/24 05:53:43;;;;;;;2.55;1.13;;;18.80;1.00;;;;;;5035353;28;20034;-95
2021/06/24 05:56:09;;;;;;;4.55;1.55;;;18.90;1.00;;;;;;5033283;28;20036;-94
2021/06/24 05:58:35;;;;;;;3.85;2.08;;;18.80;1.00;;;;;;5033957;28;20064;-95
2021/06/24 06:01:00;;;;;;;5.10;2.60;;;18.80;1.00;;;;;;5033495;28;20084;-94
2021/06/24 06:03:27;;;;;;;5.10;2.45;;;18.90;1.00;;;;;;5034826;28;20038;-94
2021/06/24 06:05:53;;;;;;;9.40;3.30;;;19.10;1.00;;;;;;5034326;28;20022;-94
2021/06/24 06:08:19;;;;;;;5.72;2.38;;;19.10;1.00;;;;;;5034461;28;20037;-94
2021/06/24 06:10:46;;;;;;;4.78;2.78;;;19.10;1.00;;;;;;5033778;28;20528;-95
2021/06/24 06:13:12;;;;;;;3.30;2.65;;;19.30;1.00;;;;;;5033332;28;20033;-95
2021/06/24 06:15:43;;;;;;;100.57;12.63;;;19.30;1.00;;;;;;5033677;28;20043;-94
2021/06/24 06:18:24;;;;;;;6.57;2.38;;;19.40;1.00;;;;;;5032871;28;20112;-94
2021/06/24 06:20:51;;;;;;;4.80;2.30;;;19.50;1.00;;;;;;5033467;28;20033;-94
2021/06/24 06:23:19;;;;;;;4.20;2.35;;;19.50;1.00;;;;;;5034348;28;20149;-92
2021/06/24 06:25:45;;;;;;;3.65;2.42;;;19.50;1.00;;;;;;5034316;28;20021;-90
2021/06/24 06:28:11;;;;;;;6.22;2.20;;;19.70;1.00;;;;;;5034068;28;20045;-92
2021/06/24 06:30:37;;;;;;;4.45;2.08;;;19.60;1.00;;;;;;5032501;28;20025;-91
2021/06/24 06:33:03;;;;;;;3.38;2.20;;;19.70;1.00;;;;;;5032949;28;20025;-92
2021/06/24 06:35:30;;;;;;;3.50;2.13;;;19.70;1.00;;;;;;5034449;28;20544;-95
2021/06/24 06:37:56;;;;;;;2.75;1.88;;;19.70;1.00;;;;;;5034243;28;20041;-95
2021/06/24 06:40:23;;;;;;;3.90;2.50;;;19.80;1.00;;;;;;5032453;28;20068;-95
2021/06/24 06:42:49;;;;;;;2.65;2.45;;;19.70;1.00;;;;;;5032732;28;20034;-96
2021/06/24 06:45:17;;;;;;;5.65;2.40;;;19.80;1.00;;;;;;5033200;28;20474;-95
2021/06/24 06:47:44;;;;;;;2.60;2.30;;;19.70;1.00;;;;;;5036737;28;20109;-96
2021/06/24 06:50:11;;;;;;;3.60;2.15;;;19.60;1.00;;;;;;5034366;28;20029;-94
2021/06/24 06:52:37;;;;;;;4.90;2.42;;;19.50;1.00;;;;;;5034099;28;20028;-95
2021/06/24 06:55:03;;;;;;;6.43;2.30;;;19.50;1.00;;;;;;5033441;28;20034;-95
2021/06/24 06:57:29;;;;;;;3.08;1.85;;;19.50;1.00;;;;;;5033261;28;20133;-96
2021/06/24 06:59:54;;;;;;;4.53;1.98;;;19.10;1.00;;;;;;5032680;28;20069;-95
2021/06/24 07:02:20;;;;;;;200.80;12.90;;;19.10;1.00;;;;;;5045905;28;20179;-95
2021/06/24 07:04:46;;;;;;;4.25;2.20;;;19.00;1.00;;;;;;5029012;28;20037;-95
2021/06/24 07:07:11;;;;;;;4.50;1.92;;;18.80;1.00;;;;;;5032511;28;20055;-95
2021/06/24 07:09:37;;;;;;;3.45;2.42;;;19.00;1.00;;;;;;5033643;28;20044;-95
2021/06/24 07:12:03;;;;;;;4.05;2.33;;;19.30;1.00;;;;;;5032912;28;20025;-95
2021/06/24 07:14:29;;;;;;;5.25;2.05;;;19.50;1.00;;;;;;5033481;28;20037;-95
2021/06/24 07:16:55;;;;;;;4.13;2.10;;;19.70;1.00;;;;;;5033697;28;20083;-96
2021/06/24 07:19:20;;;;;;;2.08;1.83;;;19.90;1.00;;;;;;5032461;28;20032;-96
2021/06/24 07:21:46;;;;;;;2.85;2.13;;;20.00;1.00;;;;;;5033848;28;20041;-95
2021/06/24 07:24:12;;;;;;;3.17;1.95;;;20.10;1.00;;;;;;5032305;28;20022;-95
2021/06/24 07:26:41;;;;;;;2.50;2.05;;;20.10;1.00;;;;;;5032939;28;20033;-96
2021/06/24 07:29:07;;;;;;;2.70;2.08;;;20.40;1.00;;;;;;5033463;28;20029;-96
2021/06/24 07:31:33;;;;;;;3.78;2.40;;;20.00;1.00;;;;;;5032791;28;20082;-95
2021/06/24 07:33:58;;;;;;;4.93;2.50;;;20.00;1.00;;;;;;5033768;28;20032;-95
2021/06/24 07:36:24;;;;;;;5.22;2.35;;;19.90;1.00;;;;;;5032650;28;20029;-96
2021/06/24 07:38:50;;;;;;;3.22;2.05;;;19.80;1.00;;;;;;5033582;28;20033;-95
2021/06/24 07:41:15;;;;;;;5.43;2.80;;;19.80;1.00;;;;;;5032530;28;20103;-96
2021/06/24 07:43:41;;;;;;;3.10;2.40;;;20.00;1.00;;;;;;5033100;28;20025;-95
2021/06/24 07:46:07;;;;;;;3.78;2.35;;;20.20;1.00;;;;;;5032536;28;20025;-96
2021/06/24 07:48:32;;;;;;;2.75;2.20;;;20.70;1.00;;;;;;5032338;28;20510;-95
2021/06/24 07:50:58;;;;;;;1.83;1.73;;;21.00;1.00;;;;;;5033825;28;20478;-96
2021/06/24 07:53:24;;;;;;;3.33;1.73;;;20.90;1.00;;;;;;5032190;28;20064;-96
2021/06/24 07:55:49;;;;;;;1.60;1.50;;;21.10;1.00;;;;;;5032523;28;20032;-96
2021/06/24 07:58:15;;;;;;;4.90;1.88;;;20.80;1.00;;;;;;5032365;28;20517;-95
2021/06/24 08:00:41;;;;;;;3.78;1.55;;;21.00;1.00;;;;;;5033655;28;20036;-95
2021/06/24 08:03:07;;;;;;;5.30;2.10;;;21.20;1.00;;;;;;5033739;28;20038;-95
2021/06/24 08:05:33;;;;;;;1.60;1.50;;;21.50;1.00;;;;;;5032516;28;20030;-96
2021/06/24 08:07:59;;;;;;;1.92;1.70;;;21.80;99.90;;;;;;5036036;28;20115;-95
2021/06/24 08:10:25;;;;;;;2.03;1.75;;;22.00;99.90;;;;;;5036107;28;20116;-95
2021/06/24 08:12:50;;;;;;;1.77;1.60;;;21.80;99.90;;;;;;5036090;28;20034;-96
2021/06/24 08:15:17;;;;;;;3.97;2.05;;;21.80;99.90;;;;;;5036354;28;20034;-95
2021/06/24 08:17:47;;;;;;;2.30;1.60;;;21.60;99.90;;;;;;5037298;28;20506;-96
2021/06/24 08:20:15;;;;;;;1.83;1.73;;;21.50;99.90;;;;;;5036705;28;20026;-96
2021/06/24 08:22:41;;;;;;;4.88;2.13;;;21.30;99.90;;;;;;5036196;28;20093;-96
2021/06/24 08:25:08;;;;;;;2.28;2.08;;;21.30;99.90;;;;;;5036927;28;20493;-96
2021/06/24 08:27:35;;;;;;;2.58;2.25;;;21.10;99.90;;;;;;5036703;28;20021;-95
2021/06/24 08:30:02;;;;;;;2.85;2.17;;;20.60;99.90;;;;;;5035935;28;20030;-95
2021/06/24 08:32:28;;;;;;;2.88;2.40;;;20.90;99.90;;;;;;5035460;28;20045;-96
2021/06/24 08:34:54;;;;;;;4.63;2.35;;;21.00;99.90;;;;;;5035412;28;20037;-95
2021/06/24 08:37:19;;;;;;;3.03;2.10;;;21.10;99.90;;;;;;5037115;28;20068;-95
2021/06/24 08:39:47;;;;;;;2.30;2.10;;;21.30;99.90;;;;;;5035475;28;20529;-96
2021/06/24 08:42:14;;;;;;;2.63;2.22;;;21.40;99.90;;;;;;5037402;28;20482;-95
2021/06/24 08:44:40;;;;;;;4.05;2.40;;;21.60;99.90;;;;;;5035351;28;20513;-96
2021/06/24 08:47:07;;;;;;;3.15;1.88;;;21.80;99.90;;;;;;5035502;28;20017;-95
2021/06/24 08:49:36;;;;;;;4.40;1.90;;;22.20;99.90;;;;;;5036691;28;20160;-96
2021/06/24 08:52:03;;;;;;;2.75;1.40;;;22.50;99.90;;;;;;5036430;28;20151;-95
2021/06/24 08:54:28;;;;;;;3.03;1.38;;;22.90;99.90;;;;;;5035734;28;20167;-96
2021/06/24 08:56:54;;;;;;;4.43;2.00;;;23.10;99.90;;;;;;5035595;28;20061;-96
2021/06/24 08:59:20;;;;;;;4.35;1.90;;;23.20;99.90;;;;;;5035074;28;20061;-96
2021/06/24 09:01:57;;;;;;;3.00;1.50;;;23.80;99.90;;;;;;5036267;28;20049;-96
2021/06/24 09:04:28;;;;;;;2.38;1.50;;;23.90;99.90;;;;;;5036005;28;20045;-95
2021/06/24 09:07:09;;;;;;;4.53;2.50;;;23.40;99.90;;;;;;5036416;28;20048;-95
2021/06/24 09:09:36;;;;;;;3.97;1.75;;;23.70;99.90;;;;;;5019927;28;20379;-95
2021/06/24 09:12:06;;;;;;;2.13;1.60;;;23.60;99.90;;;;;;5035589;28;20026;-95
2021/06/24 09:14:52;;;;;;;2.85;1.88;;;23.80;99.90;;;;;;5035105;28;20039;-95
2021/06/24 09:17:44;;;;;;;3.63;1.70;;;24.30;99.90;;;;;;5034921;28;20045;-95
2021/06/24 09:20:18;;;;;;;7.05;1.63;;;24.70;99.90;;;;;;5035164;28;20025;-95
2021/06/24 09:23:17;;;;;;;3.17;1.50;;;24.70;99.90;;;;;;5034805;28;20052;-96
2021/06/24 09:25:46;;;;;;;1.83;0.95;;;24.60;99.90;;;;;;5034822;28;20030;-95
2021/06/24 09:28:12;;;;;;;2.38;0.93;;;24.50;99.90;;;;;;5034685;28;20061;-95
2021/06/24 09:30:43;;;;;;;0.93;0.90;;;24.60;99.90;;;;;;5035092;28;20018;-95
2021/06/24 09:33:12;;;;;;;0.77;0.77;;;24.70;99.90;;;;;;5035099;28;20029;-95
2021/06/24 09:35:38;;;;;;;0.93;0.90;;;24.90;99.90;;;;;;5034938;28;20044;-95
2021/06/24 09:38:08;;;;;;;0.95;0.80;;;24.10;99.90;;;;;;5034715;28;20071;-95
2021/06/24 09:40:52;;;;;;;1.42;0.80;;;23.90;99.90;;;;;;5035644;28;20061;-95
2021/06/24 09:43:24;;;;;;;1.48;0.70;;;23.80;99.90;;;;;;5034481;28;20438;-95
2021/06/24 09:46:19;;;;;;;1.80;0.98;;;23.90;99.90;;;;;;5034305;28;20551;-95
2021/06/24 09:48:51;;;;;;;1.42;0.60;;;24.50;99.90;;;;;;5003727;28;20573;-95
2021/06/24 09:51:23;;;;;;;0.80;0.80;;;24.70;99.90;;;;;;5035627;28;20033;-95
2021/06/24 09:54:10;;;;;;;1.95;0.93;;;24.10;99.90;;;;;;5035801;28;20118;-95
2021/06/24 09:56:45;;;;;;;0.80;0.80;;;24.30;99.90;;;;;;5035630;28;20026;-95
2021/06/24 09:59:13;;;;;;;1.92;1.10;;;24.70;99.90;;;;;;5033715;28;20509;-95
2021/06/24 10:01:43;;;;;;;2.35;0.85;;;24.60;99.90;;;;;;5035340;28;20049;-94
2021/06/24 10:04:20;;;;;;;0.90;0.90;;;24.20;99.90;;;;;;5033762;28;20033;-95
2021/06/24 10:06:57;;;;;;;1.60;1.10;;;24.70;99.90;;;;;;5033781;28;20025;-95
2021/06/24 10:09:24;;;;;;;1.00;0.82;;;24.60;99.90;;;;;;5034423;28;20025;-94
2021/06/24 10:11:51;;;;;;;2.97;0.90;;;24.80;99.90;;;;;;5035563;28;20040;-96
2021/06/24 10:14:19;;;;;;;1.48;1.10;;;25.20;99.90;;;;;;5034323;28;20060;-94
2021/06/24 10:16:55;;;;;;;0.80;0.80;;;25.70;99.90;;;;;;5034151;28;20121;-94
2021/06/24 10:19:32;;;;;;;1.00;0.90;;;25.00;99.90;;;;;;5033857;28;20071;-95
2021/06/24 10:22:20;;;;;;;1.48;0.90;;;25.30;99.90;;;;;;5033550;28;20505;-95
2021/06/24 10:24:56;;;;;;;1.58;0.90;;;25.40;99.90;;;;;;5020099;28;20124;-94
2021/06/24 10:27:29;;;;;;;1.55;1.05;;;24.80;99.90;;;;;;5034012;28;20030;-94
2021/06/24 10:29:55;;;;;;;2.10;1.33;;;24.10;99.90;;;;;;5028453;28;20478;-95
2021/06/24 10:32:26;;;;;;;3.53;1.10;;;23.50;99.90;;;;;;5033771;28;20025;-95
2021/06/24 10:34:52;;;;;;;1.23;1.13;;;23.20;99.90;;;;;;5034144;28;20029;-94
2021/06/24 10:37:23;;;;;;;2.95;1.60;;;23.10;99.90;;;;;;5034276;28;20026;-95
2021/06/24 10:39:52;;;;;;;1.40;1.02;;;23.00;99.90;;;;;;5034892;28;20120;-95
2021/06/24 10:42:19;;;;;;;4.65;1.50;;;23.00;99.90;;;;;;5033055;28;20028;-95
2021/06/24 10:44:51;;;;;;;1.77;1.63;;;22.70;99.90;;;;;;5033386;28;20029;-95
2021/06/24 10:47:40;;;;;;;1.83;1.58;;;22.40;99.90;;;;;;5033684;28;20120;-94
2021/06/24 10:50:32;;;;;;;5.57;2.08;;;22.20;99.90;;;;;;5032621;28;20081;-94
2021/06/24 10:53:18;;;;;;;2.40;2.20;;;22.30;99.90;;;;;;5034027;28;20490;-94
2021/06/24 10:55:50;;;;;;;2.50;2.30;;;22.40;99.90;;;;;;5034605;28;20413;-95
2021/06/24 10:58:18;;;;;;;4.22;2.53;;;22.30;99.90;;;;;;5033638;28;20029;-94
2021/06/24 11:00:47;;;;;;;2.55;2.30;;;22.30;99.90;;;;;;5033716;28;20510;-94
2021/06/24 11:03:15;;;;;;;3.08;2.20;;;22.40;99.90;;;;;;5033996;28;20036;-94
2021/06/24 11:05:47;;;;;;;3.50;2.10;;;22.90;99.90;;;;;;5031014;28;20113;-95
2021/06/24 11:08:13;;;;;;;2.15;2.00;;;23.40;99.90;;;;;;5032452;28;20065;-94
2021/06/24 11:11:03;;;;;;;3.25;2.08;;;23.50;99.90;;;;;;5032338;28;20083;-93
2021/06/24 11:13:41;;;;;;;2.10;1.90;;;24.00;99.90;;;;;;5025154;28;20348;-95
2021/06/24 11:16:10;;;;;;;2.03;1.65;;;24.00;99.90;;;;;;5032112;28;20030;-94
2021/06/24 11:18:36;;;;;;;2.55;1.75;;;23.70;99.90;;;;;;5033799;28;20057;-95
2021/06/24 11:21:07;;;;;;;1.55;1.33;;;23.30;99.90;;;;;;5046491;28;20037;-95
2021/06/24 11:23:35;;;;;;;1.10;0.90;;;22.80;99.90;;;;;;5031884;28;20022;-95
2021/06/24 11:26:06;;;;;;;2.58;0.90;;;22.40;99.90;;;;;;5032507;28;20041;-94
2021/06/24 11:28:44;;;;;;;1.15;0.70;;;22.30;99.90;;;;;;5032203;28;20029;-95
2021/06/24 11:31:12;;;;;;;0.57;0.57;;;22.30;99.90;;;;;;5033393;28;20036;-95
2021/06/24 11:33:51;;;;;;;1.77;0.60;;;22.60;99.90;;;;;;5032123;28;20068;-95
2021/06/24 11:36:19;;;;;;;0.98;0.60;;;23.40;99.90;;;;;;5033385;28;20509;-95
2021/06/24 11:38:49;;;;;;;1.60;0.60;;;23.90;99.90;;;;;;5032615;28;20051;-95
2021/06/24 11:41:20;;;;;;;2.20;0.70;;;24.60;99.90;;;;;;5037493;28;20036;-95
2021/06/24 11:44:04;;;;;;;0.80;0.80;;;24.80;99.90;;;;;;5039712;28;20495;-96
2021/06/24 11:46:36;;;;;;;0.70;0.70;;;24.60;99.90;;;;;;5040087;28;20372;-95
2021/06/24 12:03:05;;;;;;;1.25;0.75;;;21.50;99.90;;;;;;5040435;28;20044;-94
2021/06/24 12:05:30;;;;;;;3.25;0.93;;;21.20;99.90;;;;;;5038555;28;20453;-94
2021/06/24 12:07:56;;;;;;;1.80;0.85;;;21.10;99.90;;;;;;5039811;28;20057;-94
2021/06/24 12:10:25;;;;;;;0.85;0.80;;;21.00;99.90;;;;;;5038579;28;20037;-94
2021/06/24 12:12:51;;;;;;;1.67;0.70;;;20.90;99.90;;;;;;5038622;28;20032;-94
2021/06/24 12:15:17;;;;;;;1.17;0.68;;;20.90;99.90;;;;;;5038729;28;20402;-94
2021/06/24 12:17:43;;;;;;;1.25;0.55;;;21.00;99.90;;;;;;5040068;28;20029;-94
2021/06/24 12:20:15;;;;;;;2.88;0.80;;;21.20;99.90;;;;;;5039605;28;20041;-94
2021/06/24 12:22:58;;;;;;;1.27;0.60;;;21.20;99.90;;;;;;5039360;28;20033;-94
2021/06/24 12:25:27;;;;;;;2.55;0.73;;;21.00;99.90;;;;;;5039530;28;20023;-95
2021/06/24 12:27:58;;;;;;;2.25;0.70;;;21.10;99.90;;;;;;5038479;28;20552;-95
2021/06/24 12:30:40;;;;;;;0.93;0.57;;;21.30;99.90;;;;;;5039472;28;20039;-95
2021/06/24 12:33:08;;;;;;;0.65;0.57;;;21.60;99.90;;;;;;5036552;28;20095;-94
2021/06/24 12:35:37;;;;;;;0.60;0.60;;;21.60;99.90;;;;;;5037378;28;20069;-94
2021/06/24 12:38:04;;;;;;;0.60;0.60;;;21.20;99.90;;;;;;5039282;28;20045;-94
2021/06/24 12:40:39;;;;;;;0.60;0.60;;;21.00;99.90;;;;;;5038204;28;20021;-94
2021/06/24 12:43:07;;;;;;;1.92;0.63;;;21.10;99.90;;;;;;5039059;28;20013;-94
2021/06/24 12:45:35;;;;;;;9.85;1.38;;;21.00;99.90;;;;;;5039248;28;20030;-94
2021/06/24 12:48:02;;;;;;;1.05;0.60;;;21.00;99.90;;;;;;5039232;28;20454;-93
2021/06/24 12:50:35;;;;;;;0.88;0.88;;;21.20;99.90;;;;;;5038098;28;20025;-94
2021/06/24 12:53:12;;;;;;;3.50;3.30;;;21.90;99.90;;;;;;5035752;28;20036;-94
2021/06/24 12:55:50;;;;;;;0.55;0.50;;;22.10;99.90;;;;;;5035275;28;20033;-94
2021/06/24 12:58:17;;;;;;;191.85;33.45;;;22.40;99.90;;;;;;5036479;28;20057;-94
2021/06/24 13:01:08;;;;;;;0.40;0.40;;;22.30;99.90;;;;;;5034989;28;20128;-94
2021/06/24 13:03:49;;;;;;;0.52;0.40;;;22.40;99.90;;;;;;5021559;28;20022;-94
2021/06/24 13:06:15;;;;;;;0.50;0.50;;;22.60;99.90;;;;;;5035105;28;20099;-95
2021/06/24 13:09:13;;;;;;;0.40;0.40;;;22.70;99.90;;;;;;5035895;28;20493;-94
2021/06/24 13:11:39;;;;;;;0.60;0.52;;;22.90;99.90;;;;;;5035580;28;20033;-94